createdAt,value
2018-05-13T00:00:36.407Z,21.66
2018-05-13T00:01:36.178Z,21.51
2018-05-13T00:02:36.211Z,21.52
2018-05-13T00:03:36.499Z,21.48
2018-05-13T00:04:36.513Z,21.52
2018-05-13T00:05:36.286Z,21.4
2018-05-13T00:06:36.566Z,21.4
2018-05-13T00:07:36.392Z,21.45
2018-05-13T00:08:36.613Z,21.4
2018-05-13T00:09:36.723Z,21.5
2018-05-13T00:10:36.681Z,21.54
2018-05-13T00:11:36.437Z,21.43
2018-05-13T00:12:36.503Z,21.5
2018-05-13T00:13:36.743Z,21.36
2018-05-13T00:14:36.769Z,21.51
2018-05-13T00:15:36.804Z,21.5
2018-05-13T00:16:36.823Z,21.46
2018-05-13T00:17:36.586Z,21.51
2018-05-13T00:18:36.621Z,21.51
2018-05-13T00:19:36.640Z,21.5
2018-05-13T00:20:36.913Z,21.51
2018-05-13T00:21:36.940Z,21.46
2018-05-13T00:22:36.760Z,21.43
2018-05-13T00:23:37.019Z,21.42
2018-05-13T00:24:37.035Z,21.43
2018-05-13T00:25:37.037Z,21.52
2018-05-13T00:26:36.815Z,21.51
2018-05-13T00:27:36.681Z,21.45
2018-05-13T00:28:36.875Z,21.42
2018-05-13T00:29:36.892Z,21.35
2018-05-13T00:30:37.171Z,21.36
2018-05-13T00:31:37.193Z,21.25
2018-05-13T00:32:37.217Z,21.39
2018-05-13T00:33:37.250Z,21.36
2018-05-13T00:34:37.261Z,21.22
2018-05-13T00:35:37.033Z,21.22
2018-05-13T00:36:36.800Z,21.29
2018-05-13T00:37:37.131Z,21.24
2018-05-13T00:38:37.107Z,21.3
2018-05-13T00:39:37.375Z,21.25
2018-05-13T00:40:37.419Z,21.17
2018-05-13T00:41:37.444Z,21.09
2018-05-13T00:42:37.468Z,21.14
2018-05-13T00:43:37.485Z,21.17
2018-05-13T00:44:37.258Z,21.07
2018-05-13T00:45:37.028Z,21.05
2018-05-13T00:46:37.310Z,20.93
2018-05-13T00:47:37.583Z,20.99
2018-05-13T00:48:37.620Z,21.03
2018-05-13T00:49:37.633Z,21.03
2018-05-13T00:50:37.587Z,20.97
2018-05-13T00:51:37.683Z,21.02
2018-05-13T00:52:37.759Z,20.93
2018-05-13T00:53:37.477Z,20.95
2018-05-13T00:54:37.769Z,20.93
2018-05-13T00:55:37.793Z,20.9
2018-05-13T00:56:37.563Z,20.75
2018-05-13T00:57:37.845Z,20.78
2018-05-13T00:58:37.862Z,20.81
2018-05-13T00:59:37.880Z,20.77
2018-05-13T01:00:37.668Z,20.78
2018-05-13T01:01:37.941Z,20.78
2018-05-13T01:02:37.971Z,20.72
2018-05-13T01:03:37.744Z,20.81
2018-05-13T01:04:38.015Z,20.78
2018-05-13T01:05:38.048Z,20.75
2018-05-13T01:06:37.553Z,20.7
2018-05-13T01:07:38.142Z,20.63
2018-05-13T01:08:37.860Z,20.63
2018-05-13T01:09:37.875Z,20.62
2018-05-13T01:10:37.913Z,20.66
2018-05-13T01:11:38.175Z,20.65
2018-05-13T01:12:37.946Z,20.67
2018-05-13T01:13:38.235Z,20.7
2018-05-13T01:14:37.995Z,20.65
2018-05-13T01:15:38.285Z,20.69
2018-05-13T01:16:38.045Z,20.63
2018-05-13T01:17:38.422Z,20.65
2018-05-13T01:18:38.483Z,20.59
2018-05-13T01:19:38.388Z,20.56
2018-05-13T01:20:38.409Z,20.55
2018-05-13T01:21:38.438Z,20.56
2018-05-13T01:22:38.506Z,20.6
2018-05-13T01:23:38.484Z,20.58
2018-05-13T01:24:38.254Z,20.63
2018-05-13T01:25:38.543Z,20.6
2018-05-13T01:26:38.046Z,20.39
2018-05-13T01:27:38.362Z,20.47
2018-05-13T01:28:38.351Z,20.4
2018-05-13T01:29:38.632Z,20.34
2018-05-13T01:30:38.658Z,20.37
2018-05-13T01:31:38.680Z,20.39
2018-05-13T01:32:38.705Z,20.36
2018-05-13T01:33:38.493Z,20.31
2018-05-13T01:34:38.758Z,20.36
2018-05-13T01:35:38.775Z,20.19
2018-05-13T01:36:38.802Z,20.31
2018-05-13T01:37:38.874Z,20.31
2018-05-13T01:38:38.602Z,20.26
2018-05-13T01:39:38.622Z,20.24
2018-05-13T01:40:38.907Z,20.25
2018-05-13T01:41:38.927Z,20.31
2018-05-13T01:42:38.780Z,20.22
2018-05-13T01:43:38.985Z,20.11
2018-05-13T01:44:38.485Z,19.99
2018-05-13T01:45:39.017Z,19.91
2018-05-13T01:46:38.786Z,19.77
2018-05-13T01:47:38.808Z,19.85
2018-05-13T01:48:39.084Z,19.74
2018-05-13T01:49:39.112Z,19.73
2018-05-13T01:50:39.136Z,19.76
2018-05-13T01:51:38.907Z,19.76
2018-05-13T01:52:39.231Z,19.73
2018-05-13T01:53:39.215Z,19.77
2018-05-13T01:54:39.251Z,19.7
2018-05-13T01:55:39.274Z,19.66
2018-05-13T01:56:39.032Z,19.7
2018-05-13T01:57:39.071Z,19.73
2018-05-13T01:58:39.339Z,19.67
2018-05-13T01:59:39.104Z,19.76
2018-05-13T02:00:39.385Z,19.76
2018-05-13T02:01:39.414Z,19.77
2018-05-13T02:02:39.177Z,19.76
2018-05-13T02:03:39.457Z,19.85
2018-05-13T02:04:39.485Z,19.73
2018-05-13T02:05:39.253Z,19.64
2018-05-13T02:06:39.524Z,19.56
2018-05-13T02:07:39.358Z,19.55
2018-05-13T02:08:39.584Z,19.58
2018-05-13T02:09:39.600Z,19.56
2018-05-13T02:10:39.627Z,19.59
2018-05-13T02:11:39.132Z,19.58
2018-05-13T02:12:39.409Z,19.63
2018-05-13T02:13:39.685Z,19.51
2018-05-13T02:14:39.709Z,19.55
2018-05-13T02:15:39.733Z,19.48
2018-05-13T02:16:39.757Z,19.51
2018-05-13T02:17:39.783Z,19.49
2018-05-13T02:18:39.814Z,19.45
2018-05-13T02:19:39.833Z,19.52
2018-05-13T02:20:39.860Z,19.52
2018-05-13T02:21:39.876Z,19.59
2018-05-13T02:22:39.951Z,19.51
2018-05-13T02:23:39.675Z,19.51
2018-05-13T02:24:39.949Z,19.51
2018-05-13T02:25:39.978Z,19.37
2018-05-13T02:26:40.017Z,19.39
2018-05-13T02:27:40.069Z,19.37
2018-05-13T02:28:39.801Z,19.49
2018-05-13T02:29:40.071Z,19.44
2018-05-13T02:30:40.103Z,19.44
2018-05-13T02:31:40.143Z,19.39
2018-05-13T02:32:40.155Z,19.45
2018-05-13T02:33:40.182Z,19.49
2018-05-13T02:34:39.948Z,19.59
2018-05-13T02:35:40.229Z,19.62
2018-05-13T02:36:40.261Z,19.58
2018-05-13T02:37:40.324Z,19.58
2018-05-13T02:38:40.301Z,19.66
2018-05-13T02:39:40.317Z,19.55
2018-05-13T02:40:40.348Z,19.63
2018-05-13T02:41:40.370Z,19.54
2018-05-13T02:42:40.391Z,19.62
2018-05-13T02:43:40.422Z,19.58
2018-05-13T02:44:40.441Z,19.63
2018-05-13T02:45:40.474Z,19.59
2018-05-13T02:46:40.489Z,19.55
2018-05-13T02:47:40.513Z,19.45
2018-05-13T02:48:40.527Z,19.51
2018-05-13T02:49:40.555Z,19.51
2018-05-13T02:50:40.577Z,19.49
2018-05-13T02:51:40.604Z,19.49
2018-05-13T02:52:40.685Z,19.4
2018-05-13T02:53:40.648Z,19.47
2018-05-13T02:54:40.772Z,19.47
2018-05-13T02:55:40.710Z,19.49
2018-05-13T02:56:40.736Z,19.49
2018-05-13T02:57:40.497Z,19.49
2018-05-13T02:58:40.764Z,19.52
2018-05-13T02:59:40.542Z,19.16
2018-05-13T03:00:40.567Z,19.19
2018-05-13T03:01:40.840Z,19.16
2018-05-13T03:02:40.860Z,19.14
2018-05-13T03:03:40.647Z,19.22
2018-05-13T03:04:40.920Z,19.14
2018-05-13T03:05:40.681Z,19.16
2018-05-13T03:06:40.715Z,19.21
2018-05-13T03:07:41.038Z,19.18
2018-05-13T03:08:41.012Z,19.14
2018-05-13T03:09:40.778Z,19.15
2018-05-13T03:10:40.557Z,19.16
2018-05-13T03:11:40.837Z,19.07
2018-05-13T03:12:41.121Z,19.16
2018-05-13T03:13:41.134Z,19.26
2018-05-13T03:14:41.160Z,19.16
2018-05-13T03:15:41.192Z,19.36
2018-05-13T03:16:41.206Z,19.41
2018-05-13T03:17:41.229Z,19.36
2018-05-13T03:18:41.338Z,19.41
2018-05-13T03:19:41.026Z,19.4
2018-05-13T03:20:41.303Z,19.41
2018-05-13T03:21:41.331Z,19.39
2018-05-13T03:22:41.144Z,19.48
2018-05-13T03:23:41.375Z,19.49
2018-05-13T03:24:41.398Z,19.39
2018-05-13T03:25:41.422Z,19.39
2018-05-13T03:26:41.443Z,19.18
2018-05-13T03:27:41.266Z,19.3
2018-05-13T03:28:41.497Z,19.31
2018-05-13T03:29:41.518Z,19.34
2018-05-13T03:30:41.561Z,19.34
2018-05-13T03:31:41.313Z,19.4
2018-05-13T03:32:41.604Z,19.36
2018-05-13T03:33:41.354Z,19.3
2018-05-13T03:34:41.626Z,19.34
2018-05-13T03:35:41.657Z,19.24
2018-05-13T03:36:41.437Z,19.29
2018-05-13T03:37:41.460Z,19.3
2018-05-13T03:38:41.731Z,19.29
2018-05-13T03:39:41.765Z,19.21
2018-05-13T03:40:41.779Z,19.21
2018-05-13T03:41:41.812Z,19.22
2018-05-13T03:42:41.874Z,19.15
2018-05-13T03:43:41.340Z,19.12
2018-05-13T03:44:41.617Z,19.07
2018-05-13T03:45:41.901Z,19.09
2018-05-13T03:46:41.410Z,19.09
2018-05-13T03:47:41.944Z,19.08
2018-05-13T03:48:41.974Z,18.96
2018-05-13T03:49:41.755Z,18.93
2018-05-13T03:50:41.778Z,18.95
2018-05-13T03:51:42.038Z,18.96
2018-05-13T03:52:42.147Z,18.98
2018-05-13T03:53:42.072Z,18.93
2018-05-13T03:54:42.120Z,18.84
2018-05-13T03:55:42.120Z,18.77
2018-05-13T03:56:41.886Z,18.52
2018-05-13T03:57:41.967Z,18.63
2018-05-13T03:58:42.199Z,18.6
2018-05-13T03:59:42.218Z,18.49
2018-05-13T04:00:42.231Z,18.47
2018-05-13T04:01:42.275Z,18.5
2018-05-13T04:02:42.036Z,18.5
2018-05-13T04:03:42.303Z,18.49
2018-05-13T04:04:42.072Z,18.49
2018-05-13T04:05:42.350Z,18.44
2018-05-13T04:06:42.381Z,18.59
2018-05-13T04:07:42.401Z,18.49
2018-05-13T04:08:42.169Z,18.5
2018-05-13T04:09:42.200Z,18.35
2018-05-13T04:10:42.489Z,18.29
2018-05-13T04:11:42.256Z,18.28
2018-05-13T04:12:42.331Z,18.29
2018-05-13T04:13:42.307Z,18.37
2018-05-13T04:14:42.579Z,18.38
2018-05-13T04:15:42.360Z,18.38
2018-05-13T04:16:42.630Z,18.34
2018-05-13T04:17:42.652Z,18.44
2018-05-13T04:18:42.670Z,18.53
2018-05-13T04:19:42.441Z,18.65
2018-05-13T04:20:42.470Z,18.75
2018-05-13T04:21:42.489Z,18.88
2018-05-13T04:22:42.863Z,18.89
2018-05-13T04:23:42.538Z,18.92
2018-05-13T04:24:42.558Z,18.84
2018-05-13T04:25:42.845Z,18.86
2018-05-13T04:26:42.609Z,18.77
2018-05-13T04:27:42.910Z,18.86
2018-05-13T04:28:42.631Z,18.95
2018-05-13T04:29:42.908Z,18.93
2018-05-13T04:30:42.932Z,18.95
2018-05-13T04:31:42.959Z,18.99
2018-05-13T04:32:42.738Z,18.95
2018-05-13T04:33:43.001Z,19.04
2018-05-13T04:34:42.774Z,19.16
2018-05-13T04:35:43.052Z,19.11
2018-05-13T04:36:43.084Z,18.93
2018-05-13T04:37:42.863Z,18.99
2018-05-13T04:38:42.890Z,18.99
2018-05-13T04:39:43.260Z,19.02
2018-05-13T04:40:43.192Z,18.93
2018-05-13T04:41:43.215Z,18.99
2018-05-13T04:42:43.031Z,18.95
2018-05-13T04:43:43.006Z,18.95
2018-05-13T04:44:42.775Z,18.99
2018-05-13T04:45:43.309Z,18.99
2018-05-13T04:46:43.339Z,19.11
2018-05-13T04:47:43.384Z,19.16
2018-05-13T04:48:43.387Z,19.29
2018-05-13T04:49:43.403Z,19.21
2018-05-13T04:50:43.428Z,19.18
2018-05-13T04:51:43.457Z,19.11
2018-05-13T04:52:43.240Z,18.95
2018-05-13T04:53:43.508Z,18.96
2018-05-13T04:54:43.264Z,19
2018-05-13T04:55:43.547Z,19.19
2018-05-13T04:56:43.585Z,19.08
2018-05-13T04:57:44.441Z,19.29
2018-05-13T04:58:43.616Z,19.19
2018-05-13T04:59:43.441Z,19.19
2018-05-13T05:00:43.668Z,19.29
2018-05-13T05:01:43.684Z,19.21
2018-05-13T05:02:43.708Z,19.18
2018-05-13T05:03:43.739Z,19.3
2018-05-13T05:04:43.504Z,19.39
2018-05-13T05:05:43.781Z,19.16
2018-05-13T05:06:43.291Z,19.16
2018-05-13T05:07:43.567Z,19.19
2018-05-13T05:08:43.854Z,19.24
2018-05-13T05:09:43.613Z,19.02
2018-05-13T05:10:43.889Z,18.95
2018-05-13T05:11:43.663Z,18.47
2018-05-13T05:12:43.995Z,18.33
2018-05-13T05:13:43.962Z,18.35
2018-05-13T05:14:43.726Z,18.4
2018-05-13T05:15:43.752Z,18.52
2018-05-13T05:16:43.771Z,18.26
2018-05-13T05:17:44.054Z,18.07
2018-05-13T05:18:44.074Z,17.82
2018-05-13T05:19:44.101Z,17.67
2018-05-13T05:20:43.869Z,17.74
2018-05-13T05:21:43.906Z,17.79
2018-05-13T05:22:44.183Z,17.92
2018-05-13T05:23:44.199Z,18.04
2018-05-13T05:24:44.216Z,18.15
2018-05-13T05:25:44.259Z,18.26
2018-05-13T05:26:44.017Z,18.2
2018-05-13T05:27:44.173Z,18.28
2018-05-13T05:28:44.087Z,18.31
2018-05-13T05:29:44.333Z,18.38
2018-05-13T05:30:44.375Z,18.38
2018-05-13T05:31:44.379Z,18.43
2018-05-13T05:32:44.150Z,18.55
2018-05-13T05:33:44.429Z,18.73
2018-05-13T05:34:44.197Z,18.83
2018-05-13T05:35:44.292Z,18.95
2018-05-13T05:36:43.992Z,18.92
2018-05-13T05:37:44.017Z,19.04
2018-05-13T05:38:44.553Z,19.19
2018-05-13T05:39:44.328Z,19.12
2018-05-13T05:40:44.337Z,19.24
2018-05-13T05:41:44.108Z,19.21
2018-05-13T05:42:44.458Z,19.37
2018-05-13T05:43:44.409Z,19.47
2018-05-13T05:44:44.693Z,19.49
2018-05-13T05:45:44.202Z,19.48
2018-05-13T05:46:44.733Z,19.58
2018-05-13T05:47:44.752Z,19.69
2018-05-13T05:48:44.789Z,19.69
2018-05-13T05:49:44.550Z,19.74
2018-05-13T05:50:44.812Z,19.76
2018-05-13T05:51:44.847Z,19.74
2018-05-13T05:52:44.609Z,19.69
2018-05-13T05:53:44.907Z,19.74
2018-05-13T05:54:44.929Z,19.81
2018-05-13T05:55:44.967Z,19.82
2018-05-13T05:56:44.988Z,19.81
2018-05-13T05:57:45.063Z,19.58
2018-05-13T05:58:45.112Z,19.54
2018-05-13T05:59:45.051Z,19.51
2018-05-13T06:00:45.069Z,19.39
2018-05-13T06:01:45.099Z,19.51
2018-05-13T06:02:45.219Z,19.51
2018-05-13T06:03:45.145Z,19.55
2018-05-13T06:04:45.197Z,19.56
2018-05-13T06:05:45.195Z,19.55
2018-05-13T06:06:44.992Z,19.4
2018-05-13T06:07:45.236Z,19.34
2018-05-13T06:08:45.312Z,19.48
2018-05-13T06:09:45.030Z,19.56
2018-05-13T06:10:45.318Z,19.67
2018-05-13T06:11:45.332Z,19.74
2018-05-13T06:12:45.153Z,19.64
2018-05-13T06:13:45.392Z,19.73
2018-05-13T06:14:45.151Z,19.76
2018-05-13T06:15:45.178Z,19.85
2018-05-13T06:16:45.463Z,19.84
2018-05-13T06:17:45.225Z,19.88
2018-05-13T06:18:45.515Z,20.09
2018-05-13T06:19:45.445Z,20.02
2018-05-13T06:20:45.299Z,20.09
2018-05-13T06:21:45.328Z,20.11
2018-05-13T06:22:45.603Z,20.02
2018-05-13T06:23:45.373Z,19.84
2018-05-13T06:24:45.649Z,19.74
2018-05-13T06:25:45.674Z,19.74
2018-05-13T06:26:45.188Z,19.73
2018-05-13T06:27:45.517Z,19.64
2018-05-13T06:28:45.507Z,19.82
2018-05-13T06:29:45.773Z,19.95
2018-05-13T06:30:45.799Z,19.89
2018-05-13T06:31:45.841Z,19.84
2018-05-13T06:32:45.857Z,19.84
2018-05-13T06:33:45.613Z,19.95
2018-05-13T06:34:45.634Z,19.76
2018-05-13T06:35:45.931Z,19.88
2018-05-13T06:36:45.682Z,19.89
2018-05-13T06:37:45.708Z,19.88
2018-05-13T06:38:45.479Z,19.94
2018-05-13T06:39:46.020Z,19.79
2018-05-13T06:40:46.047Z,19.94
2018-05-13T06:41:45.809Z,19.74
2018-05-13T06:42:46.132Z,19.91
2018-05-13T06:43:45.853Z,19.89
2018-05-13T06:44:46.129Z,19.79
2018-05-13T06:45:45.901Z,19.94
2018-05-13T06:46:46.176Z,20.02
2018-05-13T06:47:46.207Z,20.19
2018-05-13T06:48:46.226Z,20.19
2018-05-13T06:49:46.256Z,20.21
2018-05-13T06:50:46.316Z,20.25
2018-05-13T06:51:46.300Z,20.31
2018-05-13T06:52:46.170Z,20.31
2018-05-13T06:53:46.367Z,20.32
2018-05-13T06:54:46.373Z,20.44
2018-05-13T06:55:46.398Z,20.52
2018-05-13T06:56:46.432Z,20.55
2018-05-13T06:57:46.600Z,20.59
2018-05-13T06:58:45.965Z,20.58
2018-05-13T06:59:46.239Z,20.72
2018-05-13T07:00:46.271Z,20.56
2018-05-13T07:01:46.545Z,20.52
2018-05-13T07:02:46.451Z,20.66
2018-05-13T07:03:46.338Z,20.74
2018-05-13T07:04:46.693Z,20.96
2018-05-13T07:05:46.648Z,20.93
2018-05-13T07:06:46.670Z,21.06
2018-05-13T07:07:46.444Z,21.12
2018-05-13T07:08:46.465Z,20.92
2018-05-13T07:09:46.744Z,21.02
2018-05-13T07:10:46.512Z,21.05
2018-05-13T07:11:46.282Z,21.17
2018-05-13T07:12:46.869Z,21
2018-05-13T07:13:46.864Z,21.11
2018-05-13T07:14:46.870Z,21.18
2018-05-13T07:15:46.901Z,21.14
2018-05-13T07:16:46.659Z,21.17
2018-05-13T07:17:46.944Z,21.05
2018-05-13T07:18:46.966Z,21.15
2018-05-13T07:19:46.992Z,21
2018-05-13T07:20:46.767Z,21.03
2018-05-13T07:21:46.787Z,20.93
2018-05-13T07:22:47.074Z,21
2018-05-13T07:23:47.091Z,20.95
2018-05-13T07:24:47.113Z,21.03
2018-05-13T07:25:47.143Z,20.96
2018-05-13T07:26:46.908Z,21.02
2018-05-13T07:27:46.978Z,20.9
2018-05-13T07:28:47.213Z,20.93
2018-05-13T07:29:47.397Z,20.96
2018-05-13T07:30:47.290Z,21
2018-05-13T07:31:47.034Z,20.84
2018-05-13T07:32:47.105Z,20.52
2018-05-13T07:33:47.102Z,20.43
2018-05-13T07:34:47.356Z,20.52
2018-05-13T07:35:47.129Z,20.82
2018-05-13T07:36:47.544Z,21.11
2018-05-13T07:37:47.190Z,21.3
2018-05-13T07:38:47.202Z,21.55
2018-05-13T07:39:47.485Z,21.6
2018-05-13T07:40:47.520Z,21.66
2018-05-13T07:41:47.531Z,21.66
2018-05-13T07:42:47.617Z,21.72
2018-05-13T07:43:47.330Z,21.7
2018-05-13T07:44:47.607Z,21.7
2018-05-13T07:45:47.626Z,21.69
2018-05-13T07:46:47.395Z,21.58
2018-05-13T07:47:47.676Z,21.7
2018-05-13T07:48:47.702Z,21.89
2018-05-13T07:49:47.475Z,21.85
2018-05-13T07:50:47.564Z,22.13
2018-05-13T07:51:47.777Z,22.1
2018-05-13T07:52:47.805Z,21.77
2018-05-13T07:53:47.831Z,21.62
2018-05-13T07:54:47.811Z,21.79
2018-05-13T07:55:47.641Z,21.89
2018-05-13T07:56:47.660Z,22.14
2018-05-13T07:57:48.056Z,22.11
2018-05-13T07:58:47.713Z,22.13
2018-05-13T07:59:47.987Z,22.29
2018-05-13T08:00:48.117Z,22.3
2018-05-13T08:01:48.037Z,22.48
2018-05-13T08:02:47.811Z,22.41
2018-05-13T08:03:48.091Z,22.5
2018-05-13T08:04:47.877Z,22.47
2018-05-13T08:05:48.143Z,22.38
2018-05-13T08:06:48.164Z,22.33
2018-05-13T08:07:48.192Z,22.38
2018-05-13T08:08:48.296Z,22.45
2018-05-13T08:09:48.247Z,22.25
2018-05-13T08:10:48.263Z,22.1
2018-05-13T08:11:48.287Z,22.11
2018-05-13T08:12:48.428Z,22.39
2018-05-13T08:13:48.335Z,22.39
2018-05-13T08:14:48.112Z,22.47
2018-05-13T08:15:48.388Z,22.38
2018-05-13T08:16:48.412Z,22.29
2018-05-13T08:17:48.437Z,22.38
2018-05-13T08:18:48.477Z,22.63
2018-05-13T08:19:48.493Z,22.8
2018-05-13T08:20:48.267Z,22.8
2018-05-13T08:21:48.047Z,22.78
2018-05-13T08:22:48.598Z,22.81
2018-05-13T08:23:48.601Z,22.73
2018-05-13T08:24:48.622Z,22.85
2018-05-13T08:25:48.658Z,22.9
2018-05-13T08:26:48.672Z,22.84
2018-05-13T08:27:48.745Z,22.76
2018-05-13T08:28:48.741Z,22.81
2018-05-13T08:29:48.770Z,22.94
2018-05-13T08:30:48.791Z,23.15
2018-05-13T08:31:48.812Z,23.34
2018-05-13T08:32:48.844Z,23.54
2018-05-13T08:33:48.611Z,23.73
2018-05-13T08:34:48.638Z,23.93
2018-05-13T08:35:48.668Z,23.95
2018-05-13T08:36:48.695Z,24.08
2018-05-13T08:37:49.075Z,23.96
2018-05-13T08:38:48.994Z,23.92
2018-05-13T08:39:48.786Z,23.92
2018-05-13T08:40:49.048Z,24.01
2018-05-13T08:41:49.098Z,23.77
2018-05-13T08:42:49.248Z,23.91
2018-05-13T08:43:48.877Z,23.91
2018-05-13T08:44:49.149Z,23.83
2018-05-13T08:45:49.004Z,23.83
2018-05-13T08:46:49.213Z,23.77
2018-05-13T08:47:49.229Z,23.81
2018-05-13T08:48:49.258Z,24.01
2018-05-13T08:49:49.287Z,24.05
2018-05-13T08:50:49.058Z,24.29
2018-05-13T08:51:49.353Z,24.38
2018-05-13T08:52:48.970Z,24.65
2018-05-13T08:53:48.884Z,24.61
2018-05-13T08:54:49.175Z,24.55
2018-05-13T08:55:49.446Z,24.61
2018-05-13T08:56:49.470Z,24.57
2018-05-13T08:57:49.297Z,24.68
2018-05-13T08:58:49.529Z,24.92
2018-05-13T08:59:49.409Z,24.88
2018-05-13T09:00:49.336Z,24.74
2018-05-13T09:01:49.356Z,24.88
2018-05-13T09:02:49.649Z,24.91
2018-05-13T09:03:49.644Z,25.17
2018-05-13T09:04:49.687Z,25.18
2018-05-13T09:05:49.443Z,25.38
2018-05-13T09:06:49.728Z,25.46
2018-05-13T09:07:49.759Z,25.55
2018-05-13T09:08:49.798Z,25.41
2018-05-13T09:09:49.570Z,25.4
2018-05-13T09:10:49.610Z,25.77
2018-05-13T09:11:49.876Z,25.95
2018-05-13T09:12:49.702Z,26.02
2018-05-13T09:13:49.927Z,26.03
2018-05-13T09:14:49.705Z,26.28
2018-05-13T09:15:49.987Z,26.47
2018-05-13T09:16:49.775Z,25.99
2018-05-13T09:17:50.040Z,25.98
2018-05-13T09:18:50.080Z,25.98
2018-05-13T09:19:50.094Z,25.69
2018-05-13T09:20:50.284Z,25.26
2018-05-13T09:21:50.153Z,25.01
2018-05-13T09:22:49.941Z,25.03
2018-05-13T09:23:49.702Z,25.01
2018-05-13T09:24:49.999Z,25.08
2018-05-13T09:25:50.261Z,25.07
2018-05-13T09:26:50.324Z,25.28
2018-05-13T09:27:50.377Z,25.41
2018-05-13T09:28:50.344Z,25.7
2018-05-13T09:29:50.363Z,25.93
2018-05-13T09:30:50.138Z,25.96
2018-05-13T09:31:50.163Z,25.87
2018-05-13T09:32:50.495Z,25.96
2018-05-13T09:33:50.471Z,26.02
2018-05-13T09:34:50.509Z,26.03
2018-05-13T09:35:50.031Z,26.26
2018-05-13T09:36:50.564Z,26.7
2018-05-13T09:37:50.328Z,27.2
2018-05-13T09:38:50.362Z,27.52
2018-05-13T09:39:50.649Z,27.95
2018-05-13T09:40:50.428Z,28.19
2018-05-13T09:41:50.694Z,28.41
2018-05-13T09:42:50.475Z,28.79
2018-05-13T09:43:50.756Z,29.05
2018-05-13T09:44:50.532Z,29.1
2018-05-13T09:45:50.950Z,28.85
2018-05-13T09:46:50.859Z,29.19
2018-05-13T09:47:50.929Z,29.38
2018-05-13T09:48:50.914Z,29.5
2018-05-13T09:49:50.436Z,29.82
2018-05-13T09:50:50.973Z,30.12
2018-05-13T09:51:51.003Z,29.31
2018-05-13T09:52:51.134Z,29.08
2018-05-13T09:53:51.064Z,28.93
2018-05-13T09:54:51.096Z,28.81
2018-05-13T09:55:51.133Z,28.39
2018-05-13T09:56:51.161Z,28.47
2018-05-13T09:57:51.187Z,28.76
2018-05-13T09:58:50.708Z,29.13
2018-05-13T09:59:50.743Z,29.32
2018-05-13T10:00:51.288Z,29.71
2018-05-13T10:01:51.314Z,30.23
2018-05-13T10:02:51.392Z,30.59
2018-05-13T10:03:51.382Z,30.85
2018-05-13T10:04:51.403Z,30.47
2018-05-13T10:05:51.501Z,30.35
2018-05-13T10:06:51.477Z,30.35
2018-05-13T10:07:51.502Z,30.57
2018-05-13T10:08:51.275Z,30.84
2018-05-13T10:09:51.567Z,31.18
2018-05-13T10:10:51.590Z,31.58
2018-05-13T10:11:51.379Z,32.12
2018-05-13T10:12:51.403Z,32.4
2018-05-13T10:13:51.689Z,32.85
2018-05-13T10:14:51.465Z,32.92
2018-05-13T10:15:51.753Z,32.9
2018-05-13T10:16:51.781Z,32.87
2018-05-13T10:17:51.874Z,32.82
2018-05-13T10:18:51.850Z,32.63
2018-05-13T10:19:51.887Z,32.23
2018-05-13T10:20:51.917Z,32.3
2018-05-13T10:21:51.432Z,32.67
2018-05-13T10:22:51.716Z,32.4
2018-05-13T10:23:52.000Z,32.36
2018-05-13T10:24:52.043Z,32.26
2018-05-13T10:25:52.067Z,32.58
2018-05-13T10:26:52.108Z,32.58
2018-05-13T10:27:52.140Z,32.78
2018-05-13T10:28:51.922Z,33.08
2018-05-13T10:29:51.947Z,33.69
2018-05-13T10:30:51.980Z,34.05
2018-05-13T10:31:52.006Z,34.45
2018-05-13T10:32:52.345Z,34.77
2018-05-13T10:33:52.333Z,35.11
2018-05-13T10:34:52.365Z,35.49
2018-05-13T10:35:52.411Z,35.61
2018-05-13T10:36:52.448Z,35.92
2018-05-13T10:37:52.524Z,35.6
2018-05-13T10:38:52.508Z,35.73
2018-05-13T10:39:52.543Z,35.79
2018-05-13T10:40:52.575Z,36.2
2018-05-13T10:41:52.366Z,35.53
2018-05-13T10:42:52.648Z,34.86
2018-05-13T10:43:52.682Z,35.05
2018-05-13T10:44:52.711Z,34.99
2018-05-13T10:45:52.754Z,34.48
2018-05-13T10:46:52.780Z,34.33
2018-05-13T10:47:52.825Z,34.23
2018-05-13T10:48:52.586Z,34.32
2018-05-13T10:49:52.876Z,34.48
2018-05-13T10:50:52.909Z,34.95
2018-05-13T10:51:52.950Z,35.39
2018-05-13T10:52:53.040Z,35.71
2018-05-13T10:53:53.016Z,35.61
2018-05-13T10:54:53.071Z,35.11
2018-05-13T10:55:52.837Z,35.63
2018-05-13T10:56:53.119Z,35.93
2018-05-13T10:57:53.486Z,36.25
2018-05-13T10:58:52.935Z,36.49
2018-05-13T10:59:53.220Z,37.01
2018-05-13T11:00:53.261Z,37.11
2018-05-13T11:01:53.035Z,37.14
2018-05-13T11:02:53.336Z,37.07
2018-05-13T11:03:53.360Z,37.08
2018-05-13T11:04:53.546Z,37.03
2018-05-13T11:05:53.174Z,37.13
2018-05-13T11:06:53.200Z,37.45
2018-05-13T11:07:53.529Z,37.49
2018-05-13T11:08:53.513Z,38.01
2018-05-13T11:09:53.555Z,38.39
2018-05-13T11:10:53.332Z,38.45
2018-05-13T11:11:53.617Z,38.2
2018-05-13T11:12:53.652Z,38.34
2018-05-13T11:13:53.689Z,38.55
2018-05-13T11:14:53.499Z,38.71
2018-05-13T11:15:53.777Z,38.77
2018-05-13T11:16:53.805Z,38.77
2018-05-13T11:17:53.844Z,38.76
2018-05-13T11:18:53.883Z,38.86
2018-05-13T11:19:53.926Z,38.83
2018-05-13T11:20:54.042Z,38.79
2018-05-13T11:21:53.986Z,39.17
2018-05-13T11:22:53.825Z,39.52
2018-05-13T11:23:53.547Z,40
2018-05-13T11:24:54.100Z,40.59
2018-05-13T11:25:54.127Z,40.88
2018-05-13T11:26:54.115Z,40.84
2018-05-13T11:27:54.198Z,41.04
2018-05-13T11:28:54.243Z,41
2018-05-13T11:29:54.269Z,41.18
2018-05-13T11:30:53.802Z,41.52
2018-05-13T11:31:54.343Z,40.81
2018-05-13T11:32:54.374Z,40.68
2018-05-13T11:33:54.689Z,40.82
2018-05-13T11:34:54.191Z,40.73
2018-05-13T11:35:54.493Z,40.2
2018-05-13T11:36:54.271Z,39.65
2018-05-13T11:37:54.355Z,39.19
2018-05-13T11:38:54.594Z,39.31
2018-05-13T11:39:54.815Z,39.58
2018-05-13T11:40:54.431Z,40.14
2018-05-13T11:41:54.476Z,40.12
2018-05-13T11:42:54.735Z,40.15
2018-05-13T11:43:54.783Z,40.23
2018-05-13T11:44:54.814Z,40.11
2018-05-13T11:45:54.849Z,39.34
2018-05-13T11:46:54.881Z,39.19
2018-05-13T11:47:54.918Z,38.89
2018-05-13T11:48:54.963Z,38.55
2018-05-13T11:49:54.988Z,38.24
2018-05-13T11:50:54.772Z,38.01
2018-05-13T11:51:55.064Z,37.97
2018-05-13T11:52:54.898Z,37.86
2018-05-13T11:53:55.128Z,38.01
2018-05-13T11:54:54.918Z,38.42
2018-05-13T11:55:55.200Z,38.77
2018-05-13T11:56:55.237Z,39.02
2018-05-13T11:57:55.272Z,39.71
2018-05-13T11:58:55.306Z,40.12
2018-05-13T11:59:55.335Z,40.78
2018-05-13T12:00:55.371Z,40.84
2018-05-13T12:01:55.153Z,41.12
2018-05-13T12:02:55.446Z,41.31
2018-05-13T12:03:55.230Z,41.63
2018-05-13T12:04:55.515Z,42.21
2018-05-13T12:05:55.553Z,42.69
2018-05-13T12:06:55.339Z,42.69
2018-05-13T12:07:55.682Z,43.11
2018-05-13T12:08:55.415Z,43.39
2018-05-13T12:09:55.712Z,43.61
2018-05-13T12:10:55.747Z,43.35
2018-05-13T12:11:55.779Z,42.92
2018-05-13T12:12:55.815Z,43
2018-05-13T12:13:55.607Z,43.33
2018-05-13T12:14:55.635Z,43.55
2018-05-13T12:15:55.673Z,43.99
2018-05-13T12:16:55.715Z,44.54
2018-05-13T12:17:55.750Z,44.68
2018-05-13T12:18:56.044Z,44.36
2018-05-13T12:19:56.076Z,44.26
2018-05-13T12:20:56.132Z,44.17
2018-05-13T12:21:56.150Z,44.3
2018-05-13T12:22:56.241Z,43.72
2018-05-13T12:23:56.229Z,42.73
2018-05-13T12:24:56.268Z,41.98
2018-05-13T12:25:56.050Z,41.19
2018-05-13T12:26:56.086Z,40.62
2018-05-13T12:27:56.381Z,39.63
2018-05-13T12:28:56.678Z,39.03
2018-05-13T12:29:56.449Z,38.67
2018-05-13T12:30:56.241Z,38.27
2018-05-13T12:31:56.527Z,38.05
2018-05-13T12:32:56.559Z,37.94
2018-05-13T12:33:56.596Z,38.09
2018-05-13T12:34:56.379Z,37.87
2018-05-13T12:35:56.226Z,37.63
2018-05-13T12:36:56.446Z,37.4
2018-05-13T12:37:56.818Z,37.48
2018-05-13T12:38:56.778Z,37.28
2018-05-13T12:39:56.807Z,37.15
2018-05-13T12:40:56.592Z,37.03
2018-05-13T12:41:56.881Z,36.92
2018-05-13T12:42:56.972Z,36.86
2018-05-13T12:43:56.955Z,37.42
2018-05-13T12:44:56.980Z,37.96
2018-05-13T12:45:56.761Z,38.77
2018-05-13T12:46:57.045Z,39.62
2018-05-13T12:47:57.083Z,40.11
2018-05-13T12:48:57.159Z,40.62
2018-05-13T12:49:56.930Z,41.43
2018-05-13T12:50:57.190Z,41.83
2018-05-13T12:51:57.225Z,42.06
2018-05-13T12:52:57.303Z,42.36
2018-05-13T12:53:57.108Z,42.44
2018-05-13T12:54:57.074Z,42.7
2018-05-13T12:55:57.106Z,42.29